Time;durP1;ratioP1;P1;durP2;ratioP2;P2;SDS_P1;SDS_P2;PMS_P1;PMS_P2;Temp;Humidity;BMP_temperature;BMP_pressure;BME280_temperature;BME280_humidity;BME280_pressure;Samples;Min_cycle;Max_cycle;Signal;HPM_P1;HPM_P2
2022/03/29 00:01:15;;;;;;;35.50;25.10;;;12.80;92.00;;;;;;5085835;28;20405;-68
2022/03/29 00:03:42;;;;;;;35.83;24.80;;;12.80;92.00;;;;;;5052378;28;20409;-68
2022/03/29 00:06:08;;;;;;;35.80;25.50;;;12.80;92.10;;;;;;5064076;28;20860;-68
2022/03/29 00:08:34;;;;;;;36.55;26.23;;;12.80;92.10;;;;;;5069318;28;20395;-68
2022/03/29 00:10:59;;;;;;;36.27;26.37;;;12.80;92.20;;;;;;5083868;28;20901;-68
2022/03/29 00:13:25;;;;;;;39.67;27.53;;;12.80;92.30;;;;;;5086046;28;20418;-67
2022/03/29 00:15:50;;;;;;;38.97;27.98;;;12.80;92.30;;;;;;5086186;28;20959;-67
2022/03/29 00:18:16;;;;;;;39.87;28.63;;;12.80;92.40;;;;;;5085524;28;20422;-68
2022/03/29 00:20:42;;;;;;;41.37;28.30;;;12.70;92.40;;;;;;5066979;28;20402;-67
2022/03/29 00:23:07;;;;;;;39.55;27.15;;;12.70;92.50;;;;;;5086748;28;20854;-69
2022/03/29 00:25:33;;;;;;;37.70;26.37;;;12.70;92.50;;;;;;5049221;28;20402;-68
2022/03/29 00:27:59;;;;;;;37.75;26.40;;;12.80;92.50;;;;;;5086643;28;20872;-67
2022/03/29 00:30:25;;;;;;;38.55;26.38;;;12.80;92.50;;;;;;5066698;28;20408;-68
2022/03/29 00:32:51;;;;;;;37.10;26.63;;;12.80;92.50;;;;;;5066078;28;20386;-67
2022/03/29 00:35:17;;;;;;;40.60;28.17;;;12.80;92.40;;;;;;5083209;28;20406;-68
2022/03/29 00:37:43;;;;;;;44.50;29.15;;;12.80;92.30;;;;;;5087069;28;20398;-68
2022/03/29 00:40:11;;;;;;;41.67;28.77;;;12.70;92.40;;;;;;5066863;28;20413;-68
2022/03/29 00:42:37;;;;;;;42.35;29.27;;;12.70;92.40;;;;;;5065323;28;20413;-67
2022/03/29 00:45:04;;;;;;;40.22;27.88;;;12.70;92.50;;;;;;5050109;28;20405;-67
2022/03/29 00:47:30;;;;;;;41.00;27.83;;;12.70;92.60;;;;;;5066895;28;20517;-68
2022/03/29 00:49:56;;;;;;;43.27;27.77;;;12.60;92.60;;;;;;5083530;28;20488;-67
2022/03/29 00:52:22;;;;;;;40.55;27.50;;;12.60;92.70;;;;;;5080999;28;20516;-67
2022/03/29 00:54:48;;;;;;;40.63;27.40;;;12.60;92.80;;;;;;5089127;28;20521;-67
2022/03/29 00:57:14;;;;;;;41.63;27.03;;;12.60;92.80;;;;;;5089355;28;20420;-68
2022/03/29 00:59:45;;;;;;;43.35;27.13;;;12.60;92.80;;;;;;5087581;28;20411;-68
2022/03/29 01:02:12;;;;;;;45.13;28.67;;;12.60;93.00;;;;;;5072189;28;20418;-68
2022/03/29 01:04:38;;;;;;;47.83;29.20;;;12.60;92.80;;;;;;5070420;28;20405;-67
2022/03/29 01:07:04;;;;;;;47.93;29.60;;;12.50;92.70;;;;;;5090657;28;20882;-68
2022/03/29 01:09:32;;;;;;;44.33;27.80;;;12.50;93.20;;;;;;5086478;28;20406;-67
2022/03/29 01:11:58;;;;;;;43.35;28.38;;;12.40;92.90;;;;;;5071888;28;20404;-67
2022/03/29 01:14:26;;;;;;;45.25;28.50;;;12.50;92.90;;;;;;5070771;28;20419;-68
2022/03/29 01:19:38;;;;;;;44.90;28.65;;;12.40;93.00;;;;;;5087500;28;20447;-68
2022/03/29 01:22:07;;;;;;;46.50;29.42;;;12.40;93.10;;;;;;5070626;28;20536;-67
2022/03/29 01:24:35;;;;;;;45.58;28.75;;;12.40;93.10;;;;;;5088141;28;20844;-67
2022/03/29 01:27:04;;;;;;;47.03;29.43;;;12.40;93.10;;;;;;5066153;28;20512;-68
2022/03/29 01:29:30;;;;;;;47.17;30.03;;;12.40;93.20;;;;;;5085599;28;20405;-69
2022/03/29 01:31:57;;;;;;;45.15;29.38;;;12.40;93.10;;;;;;5089680;28;20405;-67
2022/03/29 01:34:24;;;;;;;49.08;29.65;;;12.40;93.20;;;;;;5088960;28;20425;-68
2022/03/29 01:36:50;;;;;;;47.45;30.05;;;12.40;93.20;;;;;;5071072;28;20406;-68
2022/03/29 01:39:16;;;;;;;49.60;30.15;;;12.50;93.20;;;;;;5086449;28;20812;-68
2022/03/29 01:41:42;;;;;;;46.65;30.35;;;12.40;93.20;;;;;;5087732;28;20422;-69
2022/03/29 01:44:09;;;;;;;50.45;30.67;;;12.40;93.20;;;;;;5069325;28;20408;-69
2022/03/29 01:46:35;;;;;;;51.47;30.60;;;12.40;93.30;;;;;;5071565;28;20557;-68
2022/03/29 01:49:01;;;;;;;50.10;30.67;;;12.40;93.30;;;;;;5070265;28;20506;-68
2022/03/29 01:51:27;;;;;;;47.83;31.03;;;12.40;93.20;;;;;;5087834;28;20417;-68
2022/03/29 01:53:59;;;;;;;46.60;29.85;;;12.40;93.30;;;;;;5088970;28;20405;-68
2022/03/29 01:56:32;;;;;;;48.20;29.63;;;12.40;93.30;;;;;;5087517;28;20462;-69
2022/03/29 01:58:59;;;;;;;48.08;30.45;;;12.40;93.40;;;;;;5087702;28;20397;-69
2022/03/29 02:01:25;;;;;;;50.17;29.83;;;12.40;93.80;;;;;;5069557;28;20486;-67
2022/03/29 02:03:50;;;;;;;52.38;30.50;;;12.40;93.40;;;;;;5069629;28;20421;-68
2022/03/29 02:06:16;;;;;;;49.60;31.83;;;12.40;93.50;;;;;;5053131;28;20834;-68
2022/03/29 02:08:42;;;;;;;51.22;31.33;;;12.30;93.60;;;;;;5071580;28;20470;-67
2022/03/29 02:11:08;;;;;;;54.47;33.17;;;12.40;93.70;;;;;;5067789;28;20528;-68
2022/03/29 02:13:34;;;;;;;55.03;33.13;;;12.40;93.80;;;;;;5088961;28;20396;-67
2022/03/29 02:16:00;;;;;;;56.30;34.00;;;12.30;93.80;;;;;;5069896;28;20910;-67
2022/03/29 02:18:26;;;;;;;56.27;33.33;;;12.30;94.00;;;;;;5070538;28;20486;-68
2022/03/29 02:20:52;;;;;;;54.05;33.65;;;12.30;94.10;;;;;;5086616;28;20475;-68
2022/03/29 02:23:18;;;;;;;55.13;34.57;;;12.30;94.20;;;;;;5064268;28;20401;-68
2022/03/29 02:25:47;;;;;;;57.72;33.17;;;12.30;94.10;;;;;;5085347;28;20413;-67
2022/03/29 02:28:13;;;;;;;55.97;33.10;;;12.30;93.90;;;;;;5086870;28;20570;-68
2022/03/29 02:30:39;;;;;;;51.28;30.08;;;12.20;94.00;;;;;;5052114;28;20413;-67
2022/03/29 02:33:06;;;;;;;50.65;29.90;;;12.30;94.10;;;;;;5088125;28;20429;-68
2022/03/29 02:35:33;;;;;;;52.13;31.00;;;12.20;94.00;;;;;;5086777;28;20413;-68
2022/03/29 02:37:59;;;;;;;55.53;32.03;;;12.20;94.10;;;;;;5068516;28;20914;-67
2022/03/29 02:40:26;;;;;;;55.00;32.37;;;12.30;94.10;;;;;;5084078;28;20494;-68
2022/03/29 02:42:53;;;;;;;52.13;32.00;;;12.20;94.00;;;;;;5088569;28;21021;-68
2022/03/29 02:45:24;;;;;;;53.35;32.08;;;12.30;94.20;;;;;;5086568;28;20481;-67
2022/03/29 02:47:53;;;;;;;52.53;31.40;;;12.20;94.20;;;;;;5051214;28;20727;-68
2022/03/29 02:50:19;;;;;;;50.80;30.95;;;12.20;94.20;;;;;;5085494;28;20410;-67
2022/03/29 02:52:56;;;;;;;52.63;31.23;;;12.30;94.20;;;;;;5069019;28;20828;-67
2022/03/29 02:55:27;;;;;;;51.70;31.13;;;12.20;94.10;;;;;;5086042;28;20426;-68
2022/03/29 02:57:53;;;;;;;51.15;30.73;;;12.20;94.10;;;;;;5088430;28;20405;-67
2022/03/29 03:00:19;;;;;;;53.35;31.80;;;12.20;94.20;;;;;;5067409;28;20410;-67
2022/03/29 03:02:47;;;;;;;48.20;30.25;;;12.20;94.10;;;;;;5051608;28;20420;-67
2022/03/29 03:05:13;;;;;;;50.42;29.85;;;12.20;94.20;;;;;;5087129;28;20497;-66
2022/03/29 03:07:40;;;;;;;53.88;31.15;;;12.20;94.20;;;;;;5088108;28;20421;-67
2022/03/29 03:10:07;;;;;;;51.17;30.80;;;12.20;94.20;;;;;;5085939;28;20421;-67
2022/03/29 03:12:37;;;;;;;52.05;31.70;;;12.20;94.20;;;;;;5069172;28;22621;-67
2022/03/29 03:15:05;;;;;;;50.70;31.00;;;12.20;94.20;;;;;;5067703;28;20423;-66
2022/03/29 03:17:31;;;;;;;51.38;31.02;;;12.20;94.30;;;;;;5067332;28;20419;-67
2022/03/29 03:19:56;;;;;;;52.87;31.53;;;12.10;94.20;;;;;;5086037;28;20431;-68
2022/03/29 03:22:22;;;;;;;55.03;32.53;;;12.10;94.20;;;;;;5087442;28;21271;-67
2022/03/29 03:24:48;;;;;;;58.07;33.73;;;12.10;94.30;;;;;;5084188;28;20408;-68
2022/03/29 03:27:16;;;;;;;56.30;32.92;;;12.10;94.40;;;;;;5088099;28;20479;-67
2022/03/29 03:29:42;;;;;;;58.23;33.80;;;12.10;94.50;;;;;;5084281;28;20838;-67
2022/03/29 03:32:08;;;;;;;56.03;32.10;;;12.10;94.40;;;;;;5082613;28;20448;-67
2022/03/29 03:34:34;;;;;;;53.83;32.78;;;12.10;94.50;;;;;;5067328;28;20397;-67
2022/03/29 03:37:02;;;;;;;56.63;32.78;;;12.10;94.60;;;;;;5087251;28;20626;-68
2022/03/29 03:39:29;;;;;;;53.80;32.53;;;12.10;94.60;;;;;;5068628;28;20443;-68
2022/03/29 03:41:54;;;;;;;55.70;33.35;;;12.10;94.60;;;;;;5051674;28;20424;-68
2022/03/29 03:44:20;;;;;;;54.33;33.05;;;12.10;94.60;;;;;;5085219;28;20429;-68
2022/03/29 03:46:46;;;;;;;54.85;33.05;;;12.10;94.50;;;;;;5069521;28;20418;-68
2022/03/29 03:49:11;;;;;;;51.87;32.03;;;12.10;94.50;;;;;;5068294;28;20444;-67
2022/03/29 03:51:37;;;;;;;53.17;32.15;;;12.10;94.50;;;;;;5087266;28;20832;-68
2022/03/29 03:54:03;;;;;;;53.70;33.37;;;12.00;94.40;;;;;;5083978;28;20782;-68
2022/03/29 03:56:29;;;;;;;54.58;33.67;;;12.00;94.10;;;;;;5087634;28;20430;-67
2022/03/29 03:58:54;;;;;;;50.17;31.83;;;12.00;94.00;;;;;;5068206;28;20441;-68
2022/03/29 04:01:20;;;;;;;54.03;32.17;;;12.10;93.90;;;;;;5053508;28;20410;-68
2022/03/29 04:03:45;;;;;;;47.78;31.85;;;12.00;93.80;;;;;;5084926;28;20493;-67
2022/03/29 04:06:11;;;;;;;50.93;32.10;;;12.00;93.60;;;;;;5080598;28;20914;-68
2022/03/29 04:08:37;;;;;;;50.97;32.17;;;12.00;93.50;;;;;;5086081;28;20489;-67
2022/03/29 04:11:02;;;;;;;53.47;32.17;;;12.00;93.30;;;;;;5086062;28;20413;-67
2022/03/29 04:13:28;;;;;;;61.93;37.77;;;12.00;93.30;;;;;;5086843;28;20441;-67
2022/03/29 04:15:54;;;;;;;59.42;35.78;;;12.00;92.90;;;;;;5083125;28;20428;-66
2022/03/29 04:18:20;;;;;;;56.43;34.50;;;11.90;92.70;;;;;;5086793;28;20473;-68
2022/03/29 04:20:46;;;;;;;57.67;35.58;;;11.90;92.70;;;;;;5083984;28;20874;-67
2022/03/29 04:23:12;;;;;;;56.40;35.70;;;11.90;92.80;;;;;;5066831;28;20408;-67
2022/03/29 04:25:38;;;;;;;56.03;34.90;;;11.80;92.60;;;;;;5084751;28;20409;-67
2022/03/29 04:28:04;;;;;;;49.90;31.25;;;11.80;92.60;;;;;;5067539;28;20419;-68
2022/03/29 04:30:29;;;;;;;48.08;29.88;;;11.80;92.50;;;;;;5082668;28;20417;-65
2022/03/29 04:32:55;;;;;;;48.30;29.93;;;11.70;92.40;;;;;;5090244;28;21096;-67
2022/03/29 04:35:21;;;;;;;43.63;27.52;;;11.70;92.30;;;;;;5085235;28;20402;-67
2022/03/29 04:37:47;;;;;;;46.77;29.43;;;11.70;92.30;;;;;;5089585;28;20886;-68
2022/03/29 04:40:13;;;;;;;45.42;27.85;;;11.70;92.30;;;;;;5072803;28;20452;-66
2022/03/29 04:42:47;;;;;;;44.65;26.25;;;11.30;92.70;;;;;;5091101;28;20205;-67
2022/03/29 04:45:14;;;;;;;45.00;26.85;;;10.90;93.10;;;;;;5071172;28;20186;-68
2022/03/29 04:47:41;;;;;;;49.85;29.50;;;10.70;93.40;;;;;;5069198;28;20409;-68
2022/03/29 04:50:08;;;;;;;52.13;28.17;;;11.00;93.40;;;;;;5090436;28;20680;-66
2022/03/29 04:52:34;;;;;;;49.70;28.33;;;10.80;93.50;;;;;;5089591;28;20178;-69
2022/03/29 04:55:00;;;;;;;49.75;26.98;;;10.60;93.80;;;;;;5083386;28;20719;-66
2022/03/29 04:57:26;;;;;;;51.17;27.98;;;10.50;94.00;;;;;;5070564;28;20268;-69
2022/03/29 04:59:52;;;;;;;52.40;28.88;;;10.40;94.10;;;;;;5088290;28;20236;-67
2022/03/29 05:02:18;;;;;;;54.38;28.25;;;10.30;94.20;;;;;;5069236;28;20269;-68
2022/03/29 05:04:44;;;;;;;53.45;28.30;;;10.20;94.30;;;;;;5067517;28;20650;-65
2022/03/29 05:07:10;;;;;;;49.95;27.20;;;10.20;94.40;;;;;;5090925;28;20611;-69
2022/03/29 05:09:36;;;;;;;52.22;28.48;;;10.10;94.50;;;;;;5084604;28;20255;-65
2022/03/29 05:12:02;;;;;;;52.28;27.63;;;10.10;94.50;;;;;;5089271;28;20530;-68
2022/03/29 05:14:28;;;;;;;51.17;27.13;;;10.10;94.60;;;;;;5067755;28;20191;-67
2022/03/29 05:16:53;;;;;;;46.67;26.08;;;10.00;94.60;;;;;;5083462;28;20181;-68
2022/03/29 05:19:19;;;;;;;51.50;27.48;;;10.00;94.70;;;;;;5088013;28;20246;-67
2022/03/29 05:21:45;;;;;;;54.35;28.23;;;10.00;94.80;;;;;;5090451;28;20665;-67
2022/03/29 05:24:10;;;;;;;47.40;25.48;;;10.00;94.80;;;;;;5070653;28;20225;-68
2022/03/29 05:26:36;;;;;;;44.70;25.52;;;10.00;94.90;;;;;;5071313;28;20193;-67
2022/03/29 05:29:02;;;;;;;52.08;27.52;;;10.00;95.00;;;;;;5088087;28;20189;-66
2022/03/29 05:31:28;;;;;;;46.97;27.35;;;10.00;95.00;;;;;;5071796;28;20190;-67
2022/03/29 05:33:54;;;;;;;50.13;27.00;;;9.90;95.00;;;;;;5090136;28;20235;-67
2022/03/29 05:36:20;;;;;;;47.20;26.02;;;9.90;95.10;;;;;;5070837;28;22214;-68
2022/03/29 05:38:51;;;;;;;45.53;25.83;;;9.90;95.10;;;;;;5085673;28;20335;-67
2022/03/29 05:41:20;;;;;;;49.45;25.80;;;9.90;95.20;;;;;;5089522;28;20630;-67
2022/03/29 05:43:49;;;;;;;46.88;26.17;;;9.90;95.20;;;;;;5089692;28;20276;-67
2022/03/29 05:49:00;;;;;;;47.22;24.83;;;9.90;95.40;;;;;;5087777;28;20751;-67
2022/03/29 05:51:28;;;;;;;51.95;26.45;;;9.90;95.40;;;;;;5053639;28;20205;-68
2022/03/29 05:53:56;;;;;;;48.78;27.75;;;9.90;95.40;;;;;;5069337;28;20186;-66
2022/03/29 05:56:22;;;;;;;56.55;28.08;;;9.90;95.40;;;;;;5085263;28;20258;-67
2022/03/29 05:58:51;;;;;;;47.45;25.92;;;9.90;95.50;;;;;;5086346;28;20182;-69
2022/03/29 06:01:18;;;;;;;48.65;25.92;;;9.90;95.50;;;;;;5069201;28;20296;-69
2022/03/29 06:03:44;;;;;;;48.22;26.00;;;9.90;95.50;;;;;;5089555;28;20242;-69
2022/03/29 06:06:10;;;;;;;51.28;26.88;;;9.90;95.60;;;;;;5071007;28;20182;-70
2022/03/29 06:08:35;;;;;;;49.03;26.65;;;9.90;95.60;;;;;;5070426;28;20695;-69
2022/03/29 06:11:02;;;;;;;44.55;23.90;;;9.90;95.60;;;;;;5062842;28;20187;-68
2022/03/29 06:13:28;;;;;;;46.67;24.67;;;9.90;95.60;;;;;;5086231;28;20338;-68
2022/03/29 06:15:54;;;;;;;45.38;24.33;;;9.90;95.70;;;;;;5088570;28;20276;-69
2022/03/29 06:18:20;;;;;;;44.05;24.48;;;9.90;95.70;;;;;;5088355;28;20702;-67
2022/03/29 06:20:46;;;;;;;41.95;23.83;;;9.90;95.70;;;;;;5088246;28;20217;-68
2022/03/29 06:23:12;;;;;;;44.17;25.23;;;9.90;95.80;;;;;;5069466;28;20225;-69
2022/03/29 06:25:38;;;;;;;41.28;22.73;;;9.90;95.70;;;;;;5088809;28;20205;-69
2022/03/29 06:28:04;;;;;;;46.08;22.88;;;9.90;95.70;;;;;;5088983;28;20182;-70
2022/03/29 06:30:29;;;;;;;39.85;23.02;;;9.90;95.80;;;;;;5088918;28;20186;-69
2022/03/29 06:32:55;;;;;;;43.47;24.92;;;9.90;95.80;;;;;;5088744;28;20173;-67
2022/03/29 06:35:24;;;;;;;36.03;22.90;;;9.90;95.80;;;;;;5067441;28;20639;-67
2022/03/29 06:37:51;;;;;;;42.00;23.42;;;9.90;95.80;;;;;;5089026;28;20217;-69
2022/03/29 06:40:17;;;;;;;38.67;23.25;;;9.80;95.80;;;;;;5070096;28;20780;-68
2022/03/29 06:42:43;;;;;;;42.22;22.50;;;9.80;95.80;;;;;;5086204;28;20206;-69
2022/03/29 06:45:10;;;;;;;40.03;23.85;;;9.80;95.80;;;;;;5084434;28;20196;-68
2022/03/29 06:47:36;;;;;;;36.03;22.35;;;9.80;95.90;;;;;;5087444;28;20196;-68
2022/03/29 06:50:04;;;;;;;40.15;23.02;;;9.80;96.00;;;;;;5088168;28;20263;-69
2022/03/29 06:52:41;;;;;;;41.20;22.70;;;9.90;96.10;;;;;;5069574;28;20205;-70
2022/03/29 06:55:09;;;;;;;42.70;23.45;;;9.90;96.10;;;;;;5086470;28;20182;-69
2022/03/29 06:57:35;;;;;;;43.70;27.85;;;9.90;96.20;;;;;;5088563;28;20716;-70
2022/03/29 07:00:01;;;;;;;42.30;24.48;;;10.00;96.30;;;;;;5080519;28;20292;-69
2022/03/29 07:02:28;;;;;;;37.92;23.58;;;10.00;96.30;;;;;;5069352;28;20216;-70
2022/03/29 07:04:53;;;;;;;40.25;24.27;;;10.00;96.30;;;;;;5068885;28;20722;-70
2022/03/29 07:07:19;;;;;;;43.88;24.85;;;10.10;96.40;;;;;;5087804;28;20212;-69
2022/03/29 07:12:34;;;;;;;42.05;26.63;;;10.10;96.30;;;;;;5088447;28;20274;-69
2022/03/29 07:15:00;;;;;;;41.85;24.50;;;10.10;96.30;;;;;;5069159;28;20708;-69
2022/03/29 07:17:26;;;;;;;44.63;24.95;;;10.10;96.30;;;;;;5084719;28;20558;-69
2022/03/29 07:19:52;;;;;;;43.13;24.27;;;10.10;96.30;;;;;;5086490;28;20193;-70
2022/03/29 07:22:18;;;;;;;35.95;22.33;;;10.10;96.30;;;;;;5066757;28;20737;-69
2022/03/29 07:24:45;;;;;;;36.85;23.17;;;10.10;96.20;;;;;;5088126;28;20271;-69
2022/03/29 07:27:10;;;;;;;37.03;21.67;;;10.10;96.20;;;;;;5088088;28;20199;-70
2022/03/29 07:29:38;;;;;;;38.58;22.83;;;10.10;96.30;;;;;;5069195;28;20178;-69
2022/03/29 07:32:05;;;;;;;35.63;21.95;;;10.10;96.40;;;;;;5086156;28;20505;-69
2022/03/29 07:34:35;;;;;;;35.75;22.98;;;10.10;96.40;;;;;;5086903;28;20186;-70
2022/03/29 07:37:02;;;;;;;37.90;23.10;;;10.10;96.40;;;;;;5087580;28;20196;-70
2022/03/29 07:39:28;;;;;;;39.75;22.73;;;10.10;96.40;;;;;;5070150;28;20543;-70
2022/03/29 07:41:55;;;;;;;40.20;24.00;;;10.10;96.50;;;;;;5068013;28;21349;-69
2022/03/29 07:44:21;;;;;;;37.70;23.23;;;10.10;96.50;;;;;;5067220;28;20272;-69
2022/03/29 07:46:46;;;;;;;;;;;10.10;96.60;;;;;;5085696;28;20177;-69
2022/03/29 07:49:12;;;;;;;;;;;10.20;96.60;;;;;;5069686;28;20053;-69
2022/03/29 07:51:38;;;;;;;;;;;10.20;96.60;;;;;;5087216;28;19916;-69
2022/03/29 07:54:04;;;;;;;;;;;10.30;96.70;;;;;;5087699;28;20336;-69
2022/03/29 07:56:29;;;;;;;;;;;10.30;96.70;;;;;;5067688;28;19931;-69
2022/03/29 07:58:56;;;;;;;;;;;10.30;96.70;;;;;;5085615;28;20015;-69
2022/03/29 08:01:22;;;;;;;;;;;10.40;96.70;;;;;;5069958;28;19922;-69
2022/03/29 08:03:48;;;;;;;;;;;10.40;96.60;;;;;;5088802;28;20326;-68
2022/03/29 08:06:13;;;;;;;;;;;10.40;96.60;;;;;;5088332;28;19924;-69
2022/03/29 08:08:40;;;;;;;;;;;10.40;96.60;;;;;;5090793;28;19955;-67
2022/03/29 08:11:08;;;;;;;;;;;10.40;96.60;;;;;;5091633;28;19955;-69
2022/03/29 08:13:34;;;;;;;;;;;10.40;96.60;;;;;;5073024;28;20008;-68
2022/03/29 08:16:01;;;;;;;;;;;10.40;96.60;;;;;;5089588;28;19924;-68
2022/03/29 08:18:28;;;;;;;;;;;10.50;96.70;;;;;;5090106;28;19924;-69
2022/03/29 08:20:53;;;;;;;;;;;10.50;96.70;;;;;;5092279;28;20006;-68
2022/03/29 08:23:19;;;;;;;;;;;10.50;96.70;;;;;;5091539;28;20030;-69
2022/03/29 08:25:45;;;;;;;;;;;10.60;96.70;;;;;;5091325;28;20429;-69
2022/03/29 08:28:11;;;;;;;;;;;10.60;96.70;;;;;;5090601;28;20011;-69
2022/03/29 08:30:36;;;;;;;;;;;10.60;96.70;;;;;;5089306;28;19959;-69
2022/03/29 08:33:02;;;;;;;;;;;10.70;96.60;;;;;;5091590;28;20019;-69
2022/03/29 08:35:29;;;;;;;;;;;11.30;95.50;;;;;;5091950;28;19959;-69
2022/03/29 08:37:54;;;;;;;;;;;11.70;94.50;;;;;;5088913;28;19946;-69
2022/03/29 08:40:26;;;;;;;;;;;12.00;93.60;;;;;;5092158;28;19916;-69
2022/03/29 08:42:54;;;;;;;;;;;12.20;93.00;;;;;;5091195;28;19977;-69
2022/03/29 08:45:25;;;;;;;;;;;12.40;92.60;;;;;;5091945;28;19959;-69
2022/03/29 08:47:52;;;;;;;;;;;12.60;92.20;;;;;;5087497;28;19947;-69
2022/03/29 08:50:17;;;;;;;;;;;12.80;91.40;;;;;;5091734;28;19923;-69
2022/03/29 08:52:44;;;;;;;;;;;13.00;91.10;;;;;;5070694;28;19993;-68
2022/03/29 08:55:10;;;;;;;;;;;13.10;90.00;;;;;;5072095;28;20419;-69
2022/03/29 08:57:36;;;;;;;;;;;13.30;89.70;;;;;;5091703;28;19920;-69
2022/03/29 09:00:04;;;;;;;;;;;13.70;87.80;;;;;;5090765;28;19916;-69
2022/03/29 09:02:34;;;;;;;;;;;14.00;85.70;;;;;;5056779;28;19963;-69
2022/03/29 09:05:06;;;;;;;;;;;14.10;84.80;;;;;;5090195;28;19967;-69
2022/03/29 09:07:50;;;;;;;;;;;14.30;84.50;;;;;;5091556;28;19916;-69
2022/03/29 09:10:16;;;;;;;;;;;14.50;82.80;;;;;;5073083;28;19934;-68
2022/03/29 09:12:41;;;;;;;;;;;14.80;81.30;;;;;;5091326;28;20409;-68
2022/03/29 09:15:08;;;;;;;;;;;14.90;81.30;;;;;;5087935;28;19916;-68
2022/03/29 09:17:35;;;;;;;;;;;15.00;81.20;;;;;;5088273;28;19959;-68
2022/03/29 09:20:07;;;;;;;30.70;22.87;;;15.50;79.50;;;;;;5086760;28;20400;-69
2022/03/29 09:22:39;;;;;;;31.02;22.13;;;16.30;76.50;;;;;;5086930;28;20424;-69
2022/03/29 09:25:06;;;;;;;31.00;23.42;;;17.30;71.90;;;;;;5067914;28;20467;-68
2022/03/29 09:27:48;;;;;;;37.60;27.00;;;18.10;66.10;;;;;;5088361;28;20412;-68
2022/03/29 09:30:14;;;;;;;32.20;23.10;;;18.60;63.40;;;;;;5087451;28;21204;-68
2022/03/29 09:33:01;;;;;;;31.40;20.40;;;19.40;59.90;;;;;;5070983;28;20420;-69
2022/03/29 09:35:27;;;;;;;28.00;20.90;;;20.10;56.50;;;;;;5067471;28;22234;-68
2022/03/29 09:37:54;;;;;;;27.70;20.25;;;20.90;54.80;;;;;;5087929;28;20412;-68
2022/03/29 09:40:20;;;;;;;27.40;19.17;;;22.10;51.30;;;;;;5053466;28;20421;-68
2022/03/29 09:43:10;;;;;;;26.73;19.40;;;23.40;47.40;;;;;;5088790;28;20398;-69
2022/03/29 09:45:50;;;;;;;28.45;20.58;;;24.50;43.60;;;;;;5084757;28;20493;-68
2022/03/29 09:48:20;;;;;;;28.38;20.60;;;24.30;42.80;;;;;;5087271;28;20418;-69
2022/03/29 09:50:46;;;;;;;29.67;20.85;;;23.70;43.30;;;;;;5069381;28;20936;-69
2022/03/29 09:53:33;;;;;;;29.00;20.33;;;23.40;45.10;;;;;;5089261;28;20393;-69
2022/03/29 09:55:59;;;;;;;32.70;22.73;;;23.70;44.20;;;;;;5081572;28;20427;-69
2022/03/29 09:58:25;;;;;;;35.85;22.27;;;24.20;42.80;;;;;;5070939;28;20421;-69
2022/03/29 10:00:51;;;;;;;31.80;23.05;;;24.30;41.70;;;;;;5070056;28;20914;-68
2022/03/29 10:03:18;;;;;;;27.05;19.73;;;24.30;42.00;;;;;;5088640;28;20548;-68
2022/03/29 10:05:46;;;;;;;30.15;21.25;;;24.50;42.70;;;;;;5086484;28;20424;-69
2022/03/29 10:11:04;;;;;;;29.03;21.00;;;26.00;38.40;;;;;;5086273;28;20409;-69
2022/03/29 10:13:30;;;;;;;30.27;20.00;;;26.20;37.50;;;;;;5083801;28;20878;-71
2022/03/29 10:15:56;;;;;;;28.10;19.60;;;26.10;38.00;;;;;;5082886;28;20414;-73
2022/03/29 10:18:26;;;;;;;27.02;18.85;;;26.20;37.90;;;;;;5085846;28;20468;-73
2022/03/29 10:20:54;;;;;;;25.67;19.10;;;27.00;37.70;;;;;;5065987;28;20437;-74
2022/03/29 10:23:23;;;;;;;29.20;19.48;;;28.00;35.50;;;;;;5052217;28;20409;-74
2022/03/29 10:25:51;;;;;;;25.38;18.70;;;28.90;33.90;;;;;;5084293;28;20405;-72
2022/03/29 10:28:17;;;;;;;;;;;29.40;32.80;;;;;;5069187;28;20413;-74
2022/03/29 10:30:43;;;;;;;;;;;29.60;31.90;;;;;;5086722;28;19915;-71
2022/03/29 10:33:15;;;;;;;;;;;29.90;31.30;;;;;;5071120;28;20510;-75
2022/03/29 10:36:00;;;;;;;;;;;30.10;30.40;;;;;;5054997;28;19956;-71
2022/03/29 10:38:45;;;;;;;;;;;30.10;30.80;;;;;;5090177;28;19908;-73
2022/03/29 10:41:25;;;;;;;;;;;30.20;30.00;;;;;;5069002;28;19912;-71
2022/03/29 10:43:52;;;;;;;;;;;30.90;29.60;;;;;;5068831;28;19907;-72
2022/03/29 10:46:32;;;;;;;;;;;31.20;29.00;;;;;;5069182;28;19908;-71
2022/03/29 10:49:16;;;;;;;;;;;30.70;29.00;;;;;;5088111;28;20330;-72
2022/03/29 10:51:42;;;;;;;31.25;19.00;;;30.10;30.00;;;;;;5085544;28;20419;-70
2022/03/29 10:54:24;;;;;;;;;;;29.50;30.00;;;;;;5068499;28;20405;-69
2022/03/29 10:56:59;;;;;;;29.23;20.25;;;28.70;32.20;;;;;;5070057;28;20426;-70
2022/03/29 10:59:26;;;;;;;30.85;20.85;;;27.80;32.70;;;;;;5069613;28;20406;-69
2022/03/29 11:02:13;;;;;;;30.70;19.97;;;27.10;34.00;;;;;;5068017;28;20563;-69
2022/03/29 11:05:09;;;;;;;32.22;21.00;;;26.30;34.90;;;;;;5067248;28;20413;-71
2022/03/29 11:07:35;;;;;;;;;;;25.40;36.00;;;;;;5080795;28;20770;-69
2022/03/29 11:10:10;;;;;;;;;;;24.70;37.20;;;;;;5087566;28;20392;-69
2022/03/29 11:12:38;;;;;;;;;;;24.30;38.10;;;;;;5088177;28;20406;-69
2022/03/29 11:15:22;;;;;;;;;;;23.40;40.00;;;;;;5053294;28;19995;-69
2022/03/29 11:17:47;;;;;;;;;;;23.00;41.10;;;;;;5085417;28;19908;-70
2022/03/29 11:20:32;;;;;;;;;;;22.60;42.10;;;;;;5070521;28;19919;-68
2022/03/29 11:23:05;;;;;;;;;;;22.30;42.80;;;;;;5087834;28;19912;-69
2022/03/29 11:25:38;;;;;;;;;;;22.20;43.50;;;;;;5087925;28;19920;-69
2022/03/29 11:28:04;;;;;;;;;;;22.30;43.90;;;;;;5087625;28;19916;-69
2022/03/29 11:30:30;;;;;;;;;;;22.40;44.40;;;;;;5084717;28;19912;-71
2022/03/29 11:32:57;;;;;;;;;;;22.60;44.20;;;;;;5068721;28;20360;-68
2022/03/29 11:35:24;;;;;;;;;;;22.80;44.90;;;;;;5085619;28;20296;-68
2022/03/29 11:37:50;;;;;;;;;;;23.30;44.30;;;;;;5070217;28;19920;-74
2022/03/29 11:40:21;;;;;;;;;;;23.60;43.20;;;;;;5088310;28;19916;-69
2022/03/29 11:42:49;;;;;;;;;;;23.70;43.70;;;;;;5088200;28;19924;-69
2022/03/29 11:45:15;;;;;;;;;;;23.90;43.50;;;;;;5087684;28;19961;-69
2022/03/29 11:47:51;;;;;;;;;;;23.90;43.60;;;;;;5071778;28;20250;-69
2022/03/29 11:50:27;;;;;;;;;;;24.00;43.50;;;;;;5086694;28;19919;-69
2022/03/29 11:52:52;;;;;;;;;;;24.00;43.70;;;;;;5069849;28;19912;-70
2022/03/29 11:55:18;;;;;;;;;;;24.00;43.50;;;;;;5070301;28;20465;-69
2022/03/29 11:57:44;;;;;;;;;;;23.90;43.50;;;;;;5087596;28;19981;-69
2022/03/29 12:00:27;;;;;;;;;;;23.90;43.60;;;;;;5067332;28;20133;-69
2022/03/29 12:02:53;;;;;;;;;;;23.90;44.30;;;;;;5088176;28;19955;-69
2022/03/29 12:05:20;;;;;;;;;;;23.90;44.60;;;;;;5085612;28;19947;-70
2022/03/29 12:07:46;;;;;;;;;;;23.80;44.80;;;;;;5069088;28;19919;-69
2022/03/29 12:10:12;;;;;;;;;;;23.70;44.80;;;;;;5069232;28;19916;-68
2022/03/29 12:12:38;;;;;;;;;;;23.70;45.30;;;;;;5053534;28;19908;-68
2022/03/29 12:15:06;;;;;;;;;;;23.70;45.40;;;;;;5087840;28;19941;-71
2022/03/29 12:17:33;;;;;;;;;;;23.60;45.90;;;;;;5067510;28;19908;-69
2022/03/29 12:19:59;;;;;;;;;;;23.60;45.30;;;;;;5083527;28;19945;-69
2022/03/29 12:22:26;;;;;;;;;;;23.50;46.00;;;;;;5066104;28;19947;-70
2022/03/29 12:24:55;;;;;;;;;;;23.40;46.20;;;;;;5087610;28;19916;-70
2022/03/29 12:27:21;;;;;;;;;;;23.40;46.20;;;;;;5088229;28;19916;-69
2022/03/29 12:29:49;;;;;;;;;;;23.40;45.50;;;;;;5089301;28;19912;-70
2022/03/29 12:32:15;;;;;;;;;;;23.40;46.00;;;;;;5086050;28;20440;-70
2022/03/29 12:34:41;;;;;;;;;;;25.00;39.00;;;;;;5052230;28;20018;-68
2022/03/29 12:37:12;;;;;;;;;;;24.60;40.30;;;;;;5087312;28;19987;-69
2022/03/29 12:39:39;;;;;;;;;;;24.20;40.70;;;;;;5066349;28;20425;-69
2022/03/29 12:42:12;;;;;;;;;;;25.10;37.00;;;;;;5087423;28;19984;-69
2022/03/29 12:44:43;;;;;;;;;;;24.50;38.70;;;;;;5068612;28;19912;-69
2022/03/29 12:47:09;;;;;;;;;;;24.10;39.60;;;;;;5067140;28;20526;-69
2022/03/29 12:49:35;;;;;;;;;;;23.90;40.30;;;;;;5090598;28;19957;-70
2022/03/29 12:52:02;;;;;;;;;;;23.70;40.70;;;;;;5090547;28;19910;-69
2022/03/29 12:54:31;;;;;;;;;;;23.60;41.60;;;;;;5093033;28;19915;-69
2022/03/29 12:56:58;;;;;;;;;;;24.50;39.30;;;;;;5072344;28;19908;-69
2022/03/29 12:59:25;;;;;;;;;;;24.90;38.10;;;;;;5092290;28;19904;-69
2022/03/29 13:01:50;;;;;;;;;;;25.00;38.10;;;;;;5073185;28;19919;-70
2022/03/29 13:04:16;;;;;;;;;;;24.30;39.70;;;;;;5071500;28;20234;-70
2022/03/29 13:06:43;;;;;;;;;;;23.90;40.60;;;;;;5072431;28;20257;-69
2022/03/29 13:09:16;;;;;;;;;;;24.50;38.50;;;;;;5089579;28;20338;-69
2022/03/29 13:11:42;;;;;;;;;;;24.80;37.70;;;;;;5071453;28;19908;-69
2022/03/29 13:14:09;;;;;;;;;;;24.80;37.20;;;;;;5055705;28;19927;-69